Terminal Aerodrome Forecast
Issued by NWS

Home | Current Version | Previous Version | Text Only | Print | Product List | Glossary On
Versions: 1 2 3 4 5 6 7 8 9 10 11 12 13
659
FTUS46 KSGX 041735
TAFONT
TAF
KONT 041735Z 0418/0524 25011G18KT P6SM SCT015 SCT200
     FM050400 24011G18KT P6SM BKN025
     FM050800 26006KT P6SM SCT025
     FM052000 26011KT P6SM SCT025=

USA.gov is the U.S. government's official web portal to all federal, state and local government web resources and services.